createdAt,value
2023-04-28T00:00:05.773Z,3.70
2023-04-28T00:02:34.386Z,3.70
2023-04-28T00:05:02.800Z,3.80
2023-04-28T00:07:31.318Z,3.80
2023-04-28T00:10:00.969Z,3.90
2023-04-28T00:12:28.991Z,3.90
2023-04-28T00:14:57.052Z,3.90
2023-04-28T00:17:25.096Z,3.90
2023-04-28T00:19:53.499Z,3.90
2023-04-28T00:22:21.990Z,3.90
2023-04-28T00:24:50.413Z,3.90
2023-04-28T00:27:20.601Z,4.00
2023-04-28T00:29:48.747Z,4.00
2023-04-28T00:32:16.756Z,4.10
2023-04-28T00:34:46.359Z,4.10
2023-04-28T00:37:14.352Z,4.20
2023-04-28T00:39:42.566Z,4.20
2023-04-28T00:42:10.865Z,4.20
2023-04-28T00:44:40.881Z,4.30
2023-04-28T00:47:10.142Z,4.30
2023-04-28T00:49:38.739Z,4.30
2023-04-28T00:52:08.126Z,4.30
2023-04-28T00:54:36.736Z,4.40
2023-04-28T00:57:05.208Z,4.40
2023-04-28T00:59:33.199Z,4.40
2023-04-28T01:02:03.305Z,4.50
2023-04-28T01:04:32.118Z,4.50
2023-04-28T01:07:01.831Z,4.50
2023-04-28T01:09:30.075Z,4.50
2023-04-28T01:11:58.660Z,4.50
2023-04-28T01:14:48.253Z,4.60
2023-04-28T01:17:18.382Z,4.60
2023-04-28T01:19:46.345Z,4.60
2023-04-28T01:22:16.446Z,4.60
2023-04-28T01:24:46.621Z,4.60
2023-04-28T01:27:15.673Z,4.60
2023-04-28T01:29:43.797Z,4.60
2023-04-28T01:32:11.781Z,4.70
2023-04-28T01:34:40.902Z,4.70
2023-04-28T01:37:08.924Z,4.70
2023-04-28T01:39:38.540Z,4.80
2023-04-28T01:42:08.091Z,4.90
2023-04-28T01:44:36.042Z,4.90
2023-04-28T01:47:04.001Z,5.00
2023-04-28T01:49:32.272Z,5.00
2023-04-28T01:52:00.780Z,5.00
2023-04-28T01:54:29.344Z,5.10
2023-04-28T01:56:57.389Z,5.20
2023-04-28T01:59:28.143Z,5.20
2023-04-28T02:01:56.761Z,5.20
2023-04-28T02:04:24.913Z,5.30
2023-04-28T02:06:52.962Z,5.40
2023-04-28T02:09:21.275Z,5.40
2023-04-28T02:11:49.428Z,5.50
2023-04-28T02:14:17.758Z,5.60
2023-04-28T02:16:47.389Z,5.60
2023-04-28T02:19:16.563Z,5.70
2023-04-28T02:21:44.602Z,5.70
2023-04-28T02:24:12.649Z,5.70
2023-04-28T02:26:40.894Z,5.80
2023-04-28T02:29:08.836Z,5.80
2023-04-28T02:31:36.839Z,5.80
2023-04-28T02:34:06.683Z,5.90
2023-04-28T02:36:34.718Z,5.90
2023-04-28T02:39:02.711Z,5.90
2023-04-28T02:41:31.721Z,5.90
2023-04-28T02:43:59.802Z,6.00
2023-04-28T02:46:28.016Z,6.00
2023-04-28T02:48:56.689Z,6.00
2023-04-28T02:51:26.808Z,6.00
2023-04-28T02:53:54.981Z,6.10
2023-04-28T02:56:24.724Z,6.10
2023-04-28T02:58:52.842Z,6.10
2023-04-28T03:01:20.837Z,6.20
2023-04-28T03:03:48.975Z,6.10
2023-04-28T03:06:17.233Z,6.20
2023-04-28T03:08:46.545Z,6.20
2023-04-28T03:11:14.525Z,6.20
2023-04-28T03:13:42.787Z,6.30
2023-04-28T03:16:10.992Z,6.40
2023-04-28T03:18:39.132Z,6.50
2023-04-28T03:21:07.195Z,6.50
2023-04-28T03:23:35.199Z,6.60
2023-04-28T03:26:05.257Z,6.80
2023-04-28T03:28:33.386Z,6.90
2023-04-28T03:31:02.738Z,7.00
2023-04-28T03:33:31.131Z,7.20
2023-04-28T03:36:01.239Z,7.30
2023-04-28T03:38:29.350Z,7.40
2023-04-28T03:40:57.423Z,7.50
2023-04-28T03:43:29.430Z,7.70
2023-04-28T03:46:17.826Z,7.80
2023-04-28T03:48:46.615Z,8.00
2023-04-28T03:51:14.862Z,8.10
2023-04-28T03:53:43.203Z,8.10
2023-04-28T03:56:11.761Z,8.20
2023-04-28T03:58:42.331Z,8.30
2023-04-28T04:01:10.734Z,8.30
2023-04-28T04:03:39.873Z,8.40
2023-04-28T04:06:08.437Z,8.40
2023-04-28T04:08:36.977Z,8.50
2023-04-28T04:11:05.440Z,8.50
2023-04-28T04:13:33.551Z,8.60
2023-04-28T04:16:05.972Z,8.60
2023-04-28T04:18:34.019Z,8.70
2023-04-28T04:21:19.825Z,8.70
2023-04-28T04:23:48.943Z,8.80
2023-04-28T04:26:17.544Z,8.80
2023-04-28T04:28:45.535Z,8.90
2023-04-28T04:31:15.257Z,9.00
2023-04-28T04:33:44.048Z,9.10
2023-04-28T04:36:13.099Z,9.20
2023-04-28T04:38:41.154Z,9.30
2023-04-28T04:41:15.188Z,9.30
2023-04-28T04:43:43.976Z,9.40
2023-04-28T04:46:12.024Z,9.50
2023-04-28T04:48:41.455Z,9.60
2023-04-28T04:51:09.676Z,9.60
2023-04-28T04:53:37.757Z,9.70
2023-04-28T04:56:06.660Z,9.80
2023-04-28T04:58:36.408Z,9.80
2023-04-28T05:01:30.626Z,9.90
2023-04-28T05:04:00.922Z,9.90
2023-04-28T05:06:29.019Z,9.90
2023-04-28T05:08:58.341Z,10.00
2023-04-28T05:11:26.826Z,10.00
2023-04-28T05:13:54.761Z,10.00
2023-04-28T05:16:23.107Z,10.10
2023-04-28T05:19:02.323Z,10.10
2023-04-28T05:21:31.054Z,10.20
2023-04-28T05:24:00.547Z,10.20
2023-04-28T05:26:28.711Z,10.20
2023-04-28T05:29:00.525Z,10.20
2023-04-28T05:31:29.133Z,10.30
2023-04-28T05:33:57.226Z,10.30
2023-04-28T05:36:28.195Z,10.30
2023-04-28T05:38:56.327Z,10.40
2023-04-28T05:41:24.427Z,10.40
2023-04-28T05:43:52.574Z,10.50
2023-04-28T05:46:30.239Z,10.50
2023-04-28T05:49:00.241Z,10.60
2023-04-28T05:51:34.724Z,10.70
2023-04-28T05:54:04.174Z,10.80
2023-04-28T05:56:39.576Z,10.80
2023-04-28T05:59:07.894Z,11.00
2023-04-28T06:01:36.593Z,11.20
2023-04-28T06:04:05.163Z,11.30
2023-04-28T06:06:35.064Z,11.30
2023-04-28T06:09:04.975Z,11.40
2023-04-28T06:11:34.460Z,11.40
2023-04-28T06:14:02.441Z,11.40
2023-04-28T06:16:30.733Z,11.40
2023-04-28T06:18:58.943Z,11.40
2023-04-28T06:21:28.679Z,11.40
2023-04-28T06:23:58.046Z,11.40
2023-04-28T06:26:26.746Z,11.40
2023-04-28T06:28:54.828Z,11.40
2023-04-28T06:31:22.932Z,11.40
2023-04-28T06:33:53.229Z,11.40
2023-04-28T06:36:21.387Z,11.40
2023-04-28T06:38:49.813Z,11.40
2023-04-28T06:41:19.198Z,11.40
2023-04-28T06:43:50.994Z,11.50
2023-04-28T06:46:26.639Z,11.50
2023-04-28T06:48:54.671Z,11.50
2023-04-28T06:51:23.918Z,11.50
2023-04-28T06:53:53.374Z,11.60
2023-04-28T06:56:23.439Z,11.60
2023-04-28T06:58:52.156Z,11.60
2023-04-28T07:01:20.373Z,11.60
2023-04-28T07:03:49.401Z,11.70
2023-04-28T07:06:18.403Z,11.70
2023-04-28T07:08:47.442Z,11.80
2023-04-28T07:11:16.516Z,11.90
2023-04-28T07:13:49.174Z,12.00
2023-04-28T07:16:17.631Z,12.00
2023-04-28T07:18:45.829Z,12.00
2023-04-28T07:21:14.292Z,12.00
2023-04-28T07:23:43.211Z,12.00
2023-04-28T07:26:12.674Z,12.00
2023-04-28T07:28:42.313Z,11.90
2023-04-28T07:31:11.680Z,12.00
2023-04-28T07:33:39.779Z,12.00
2023-04-28T07:36:08.410Z,12.00
2023-04-28T07:38:36.534Z,12.00
2023-04-28T07:41:06.801Z,12.00
2023-04-28T07:43:36.754Z,12.10
2023-04-28T07:46:05.030Z,12.10
2023-04-28T07:48:35.131Z,12.10
2023-04-28T07:51:03.351Z,12.00
2023-04-28T07:53:31.352Z,12.00
2023-04-28T07:55:59.335Z,12.00
2023-04-28T07:58:27.346Z,11.90
2023-04-28T08:00:55.440Z,11.80
2023-04-28T08:03:23.775Z,11.80
2023-04-28T08:05:55.544Z,11.70
2023-04-28T08:08:23.779Z,11.70
2023-04-28T08:10:52.420Z,11.70
2023-04-28T08:13:20.402Z,11.60
2023-04-28T08:15:49.024Z,11.60
2023-04-28T08:18:17.250Z,11.50
2023-04-28T08:20:45.259Z,11.50
2023-04-28T08:23:14.747Z,11.50
2023-04-28T08:25:42.815Z,11.50
2023-04-28T08:28:10.797Z,11.50
2023-04-28T08:30:39.326Z,11.40
2023-04-28T08:33:07.766Z,11.40
2023-04-28T08:35:35.957Z,11.40
2023-04-28T08:38:04.014Z,11.40
2023-04-28T08:40:33.676Z,11.30
2023-04-28T08:43:01.665Z,11.30
2023-04-28T08:45:31.775Z,11.30
2023-04-28T08:48:00.748Z,11.30
2023-04-28T08:50:31.350Z,11.30
2023-04-28T08:52:59.698Z,11.30
2023-04-28T08:55:28.403Z,11.20
2023-04-28T08:57:58.247Z,11.10
2023-04-28T09:00:26.404Z,11.10
2023-04-28T09:02:54.473Z,11.00
2023-04-28T09:05:22.828Z,10.90
2023-04-28T09:07:52.163Z,10.90
2023-04-28T09:10:22.012Z,10.90
2023-04-28T09:12:52.641Z,10.90
2023-04-28T09:15:31.819Z,10.90
2023-04-28T09:18:02.869Z,10.90
2023-04-28T09:20:32.691Z,10.90
2023-04-28T09:23:14.893Z,10.90
2023-04-28T09:25:56.475Z,10.90
2023-04-28T09:28:24.764Z,10.80
2023-04-28T09:30:54.285Z,10.90
2023-04-28T09:33:22.654Z,10.90
2023-04-28T09:35:51.335Z,10.80
2023-04-28T09:38:20.876Z,10.80
2023-04-28T09:40:54.471Z,10.80
2023-04-28T09:43:31.203Z,10.90
2023-04-28T09:46:02.222Z,10.90
2023-04-28T09:48:32.308Z,10.90
2023-04-28T09:51:01.523Z,11.00
2023-04-28T09:53:30.473Z,11.00
2023-04-28T09:55:59.845Z,11.00
2023-04-28T09:58:29.504Z,11.00
2023-04-28T10:01:01.420Z,11.00
2023-04-28T10:03:31.137Z,10.90
2023-04-28T10:06:00.625Z,10.90
2023-04-28T10:08:29.150Z,10.80
2023-04-28T10:10:57.861Z,10.90
2023-04-28T10:13:26.650Z,10.90
2023-04-28T10:15:55.940Z,10.90
2023-04-28T10:18:25.821Z,10.80
2023-04-28T10:20:58.610Z,10.80
2023-04-28T10:23:48.036Z,10.80
2023-04-28T10:26:19.720Z,10.80
2023-04-28T10:28:48.986Z,10.80
2023-04-28T10:31:18.853Z,10.80
2023-04-28T10:33:49.693Z,10.90
2023-04-28T10:36:50.715Z,10.80
2023-04-28T10:39:18.839Z,10.80
2023-04-28T10:41:47.731Z,10.90
2023-04-28T10:44:44.035Z,10.90
2023-04-28T10:47:12.843Z,10.90
2023-04-28T10:50:11.271Z,10.90
2023-04-28T10:52:52.502Z,10.90
2023-04-28T10:55:33.628Z,10.80
2023-04-28T10:58:33.991Z,10.90
2023-04-28T11:01:28.329Z,10.80
2023-04-28T11:04:03.285Z,10.80
2023-04-28T11:06:34.642Z,10.70
2023-04-28T11:09:04.117Z,10.80
2023-04-28T11:11:34.779Z,10.80
2023-04-28T11:14:33.302Z,10.80
2023-04-28T11:17:03.125Z,10.70
2023-04-28T11:19:33.170Z,10.70
2023-04-28T11:22:04.342Z,10.80
2023-04-28T11:24:32.531Z,10.90
2023-04-28T11:27:02.271Z,11.00
2023-04-28T11:29:35.207Z,11.10
2023-04-28T11:32:03.870Z,11.00
2023-04-28T11:34:32.723Z,11.10
2023-04-28T11:37:02.781Z,11.10
2023-04-28T11:39:32.589Z,11.10
2023-04-28T11:42:02.251Z,11.10
2023-04-28T11:44:31.754Z,11.10
2023-04-28T11:49:49.443Z,11.20
2023-04-28T11:52:19.852Z,11.20
2023-04-28T11:54:55.324Z,11.30
2023-04-28T11:57:24.266Z,11.30
2023-04-28T11:59:21.437Z,11.10
2023-04-28T11:59:52.580Z,11.30
2023-04-28T12:02:28.389Z,11.40
2023-04-28T12:04:56.677Z,11.40
2023-04-28T12:07:26.137Z,11.40
2023-04-28T12:10:12.803Z,11.50
2023-04-28T12:12:51.025Z,11.50
2023-04-28T12:15:21.860Z,11.40
2023-04-28T12:17:50.694Z,11.60
2023-04-28T12:20:38.077Z,11.80
2023-04-28T12:23:08.438Z,11.90
2023-04-28T12:25:44.891Z,12.00
2023-04-28T12:28:12.923Z,12.00
2023-04-28T12:30:42.485Z,12.00
2023-04-28T12:33:24.778Z,12.20
2023-04-28T12:35:53.690Z,12.20
2023-04-28T12:38:23.072Z,12.30
2023-04-28T12:40:51.016Z,12.40
2023-04-28T12:43:19.090Z,12.30
2023-04-28T12:45:47.061Z,12.30
2023-04-28T12:48:16.539Z,12.20
2023-04-28T12:50:44.468Z,12.20
2023-04-28T12:53:12.487Z,12.30
2023-04-28T12:55:42.093Z,12.40
2023-04-28T12:58:10.743Z,12.40
2023-04-28T13:00:39.171Z,12.40
2023-04-28T13:03:07.502Z,12.40
2023-04-28T13:05:35.822Z,12.50
2023-04-28T13:08:04.557Z,12.40
2023-04-28T13:10:32.628Z,12.50
2023-04-28T13:13:02.006Z,12.50
2023-04-28T13:15:30.179Z,12.60
2023-04-28T13:17:59.869Z,12.70
2023-04-28T13:20:28.291Z,12.70
2023-04-28T13:22:56.256Z,12.90
2023-04-28T13:25:24.774Z,13.00
2023-04-28T13:27:52.961Z,13.10
2023-04-28T13:30:22.875Z,12.90
2023-04-28T13:32:51.970Z,12.90
2023-04-28T13:35:20.418Z,12.70
2023-04-28T13:37:48.445Z,12.60
2023-04-28T13:40:16.475Z,12.40
2023-04-28T13:42:44.488Z,12.40
2023-04-28T13:45:13.930Z,12.40
2023-04-28T13:47:44.249Z,12.30
2023-04-28T13:50:12.261Z,12.20
2023-04-28T13:52:40.336Z,12.20
2023-04-28T13:55:08.767Z,12.20
2023-04-28T13:57:36.914Z,12.20
2023-04-28T14:00:05.845Z,12.30
2023-04-28T14:02:38.031Z,12.30
2023-04-28T14:05:08.477Z,12.40
2023-04-28T14:07:36.944Z,12.50
2023-04-28T14:10:06.132Z,12.60
2023-04-28T14:12:34.263Z,12.80
2023-04-28T14:15:02.686Z,12.90
2023-04-28T14:17:30.877Z,12.90
2023-04-28T14:19:59.000Z,13.00
2023-04-28T14:22:28.375Z,13.00
2023-04-28T14:24:56.432Z,13.20
2023-04-28T14:27:24.442Z,13.20
2023-04-28T14:29:52.470Z,13.30
2023-04-28T14:32:21.333Z,13.40
2023-04-28T14:34:49.909Z,13.50
2023-04-28T14:37:18.222Z,13.50
2023-04-28T14:39:47.792Z,13.50
2023-04-28T14:42:15.886Z,13.40
2023-04-28T14:44:44.916Z,13.30
2023-04-28T14:47:13.241Z,13.20
2023-04-28T14:49:41.344Z,13.20
2023-04-28T14:52:09.327Z,13.20
2023-04-28T14:54:37.730Z,13.10
2023-04-28T14:57:07.278Z,13.10
2023-04-28T14:59:35.679Z,13.00
2023-04-28T15:02:04.008Z,13.00
2023-04-28T15:04:32.704Z,12.80
2023-04-28T15:07:01.176Z,12.70
2023-04-28T15:09:29.492Z,12.70
2023-04-28T15:11:57.780Z,12.70
2023-04-28T15:14:27.124Z,12.60
2023-04-28T15:16:55.092Z,12.60
2023-04-28T15:19:23.432Z,12.50
2023-04-28T15:21:51.676Z,12.50
2023-04-28T15:24:21.151Z,12.50
2023-04-28T15:26:49.088Z,12.30
2023-04-28T15:29:17.301Z,12.30
2023-04-28T15:31:46.909Z,12.20
2023-04-28T15:34:14.937Z,12.20
2023-04-28T15:36:44.714Z,12.20
2023-04-28T15:39:12.674Z,12.20
2023-04-28T15:41:40.666Z,12.10
2023-04-28T15:44:09.896Z,12.10
2023-04-28T15:46:38.152Z,12.00
2023-04-28T15:49:07.532Z,12.00
2023-04-28T15:51:35.495Z,12.00
2023-04-28T15:54:03.853Z,11.90
2023-04-28T15:56:31.937Z,11.80
2023-04-28T15:58:59.937Z,11.80
2023-04-28T16:01:29.428Z,11.80
2023-04-28T16:03:57.525Z,11.80
2023-04-28T16:06:26.934Z,11.70
2023-04-28T16:08:56.898Z,11.60
2023-04-28T16:11:25.017Z,11.60
2023-04-28T16:13:53.081Z,11.60
2023-04-28T16:16:23.301Z,11.50
2023-04-28T16:18:51.460Z,11.40
2023-04-28T16:21:19.600Z,11.30
2023-04-28T16:23:51.616Z,11.40
2023-04-28T16:26:19.756Z,11.30
2023-04-28T16:28:48.332Z,11.40
2023-04-28T16:31:16.776Z,11.40
2023-04-28T16:33:44.743Z,11.50
2023-04-28T16:36:12.778Z,11.50
2023-04-28T16:38:41.167Z,11.50
2023-04-28T16:41:10.459Z,11.50
2023-04-28T16:43:38.683Z,11.50
2023-04-28T16:46:07.626Z,11.50
2023-04-28T16:48:35.800Z,11.50
2023-04-28T16:51:06.978Z,11.50
2023-04-28T16:53:35.115Z,11.50
2023-04-28T16:56:03.095Z,11.40
2023-04-28T16:58:32.425Z,11.40
2023-04-28T17:01:00.420Z,11.30
2023-04-28T17:03:30.071Z,11.30
2023-04-28T17:05:59.305Z,11.30
2023-04-28T17:08:27.297Z,11.30
2023-04-28T17:10:55.228Z,11.30
2023-04-28T17:13:23.220Z,11.20
2023-04-28T17:15:57.448Z,11.20
2023-04-28T17:18:26.369Z,11.20
2023-04-28T17:20:54.348Z,11.20
2023-04-28T17:23:22.481Z,11.20
2023-04-28T17:25:50.917Z,11.20
2023-04-28T17:28:18.904Z,11.20
2023-04-28T17:30:47.701Z,11.30
2023-04-28T17:33:17.455Z,11.30
2023-04-28T17:35:45.749Z,11.30
2023-04-28T17:38:14.749Z,11.30
2023-04-28T17:40:44.769Z,11.40
2023-04-28T17:43:12.853Z,11.30
2023-04-28T17:45:41.847Z,11.40
2023-04-28T17:48:09.881Z,11.40
2023-04-28T17:50:39.225Z,11.40
2023-04-28T17:53:07.402Z,11.30
2023-04-28T17:55:35.352Z,11.30
2023-04-28T17:58:03.472Z,11.40
2023-04-28T18:00:31.461Z,11.40
2023-04-28T18:02:59.825Z,11.40
2023-04-28T18:05:28.847Z,11.40
2023-04-28T18:08:03.542Z,11.40
2023-04-28T18:10:31.631Z,11.40
2023-04-28T18:13:00.042Z,11.50
2023-04-28T18:15:29.258Z,11.40
2023-04-28T18:17:57.726Z,11.40
2023-04-28T18:20:25.995Z,11.40
2023-04-28T18:22:54.009Z,11.40
2023-04-28T18:25:23.706Z,11.30
2023-04-28T18:27:53.249Z,11.30
2023-04-28T18:30:21.871Z,11.40
2023-04-28T18:32:50.906Z,11.40
2023-04-28T18:35:19.200Z,11.30
2023-04-28T18:37:47.271Z,11.30
2023-04-28T18:40:15.298Z,11.30
2023-04-28T18:42:44.570Z,11.30
2023-04-28T18:47:40.950Z,11.30
2023-04-28T18:50:09.442Z,11.30
2023-04-28T18:52:37.723Z,11.30
2023-04-28T18:55:06.292Z,11.30
2023-04-28T18:57:34.641Z,11.30
2023-04-28T19:00:05.097Z,11.30
2023-04-28T19:02:33.192Z,11.30
2023-04-28T19:05:02.488Z,11.30
2023-04-28T19:07:30.604Z,11.30
2023-04-28T19:09:58.600Z,11.30
2023-04-28T19:12:26.764Z,11.20
2023-04-28T19:14:55.462Z,11.20
2023-04-28T19:17:25.608Z,11.20
2023-04-28T19:19:56.065Z,11.20
2023-04-28T19:22:31.306Z,11.20
2023-04-28T19:24:59.643Z,11.20
2023-04-28T19:27:30.951Z,11.20
2023-04-28T19:29:59.100Z,11.20
2023-04-28T19:32:28.964Z,11.20
2023-04-28T19:34:57.043Z,11.20
2023-04-28T19:37:25.444Z,11.20
2023-04-28T19:39:53.410Z,11.20
2023-04-28T19:42:21.640Z,11.10
2023-04-28T19:44:54.266Z,11.10
2023-04-28T19:47:25.770Z,11.20
2023-04-28T19:49:55.580Z,11.20
2023-04-28T19:52:24.652Z,11.20
2023-04-28T19:54:53.149Z,11.20
2023-04-28T19:57:21.295Z,11.20
2023-04-28T19:59:49.941Z,11.20
2023-04-28T20:02:18.939Z,11.20
2023-04-28T20:04:47.576Z,11.20
2023-04-28T20:07:17.043Z,11.20
2023-04-28T20:09:45.492Z,11.20
2023-04-28T20:12:13.476Z,11.20
2023-04-28T20:14:41.453Z,11.20
2023-04-28T20:17:10.006Z,11.20
2023-04-28T20:19:38.607Z,11.20
2023-04-28T20:22:08.667Z,11.30
2023-04-28T20:24:39.404Z,11.20
2023-04-28T20:27:07.546Z,11.20
2023-04-28T20:29:36.546Z,11.20
2023-04-28T20:32:05.707Z,11.20
2023-04-28T20:34:33.875Z,11.20
2023-04-28T20:37:03.481Z,11.30
2023-04-28T20:39:31.563Z,11.30
2023-04-28T20:42:01.967Z,11.30
2023-04-28T20:44:30.004Z,11.30
2023-04-28T20:46:59.118Z,11.30
2023-04-28T20:49:27.104Z,11.40
2023-04-28T20:51:55.087Z,11.40
2023-04-28T20:54:23.248Z,11.40
2023-04-28T20:56:51.282Z,11.40
2023-04-28T20:59:20.613Z,11.40
2023-04-28T21:01:48.668Z,11.50
2023-04-28T21:04:16.927Z,11.50
2023-04-28T21:06:45.022Z,11.50
2023-04-28T21:09:13.931Z,11.40
2023-04-28T21:11:42.500Z,11.40
2023-04-28T21:14:10.588Z,11.30
2023-04-28T21:16:43.249Z,11.30
2023-04-28T21:19:11.583Z,11.30
2023-04-28T21:21:39.637Z,11.20
2023-04-28T21:24:08.098Z,11.20
2023-04-28T21:26:36.830Z,11.20
2023-04-28T21:29:04.834Z,11.20
2023-04-28T21:31:32.829Z,11.10
2023-04-28T21:34:02.137Z,11.10
2023-04-28T21:36:30.817Z,11.00
2023-04-28T21:38:58.847Z,11.00
2023-04-28T21:41:27.064Z,11.00
2023-04-28T21:43:55.041Z,11.00
2023-04-28T21:46:23.640Z,11.00
2023-04-28T21:48:51.707Z,11.00
2023-04-28T21:51:21.144Z,10.90
2023-04-28T21:53:49.313Z,10.90
2023-04-28T21:56:17.324Z,10.80
2023-04-28T21:58:45.470Z,10.80
2023-04-28T22:01:17.949Z,10.80
2023-04-28T22:03:46.536Z,10.70
2023-04-28T22:06:14.876Z,10.70
2023-04-28T22:08:46.776Z,10.70
2023-04-28T22:11:14.805Z,10.70
2023-04-28T22:13:42.842Z,10.60
2023-04-28T22:16:13.502Z,10.50
2023-04-28T22:18:42.196Z,10.50
2023-04-28T22:21:11.160Z,10.50
2023-04-28T22:23:39.083Z,10.50
2023-04-28T22:26:08.415Z,10.40
2023-04-28T22:28:36.619Z,10.40
2023-04-28T22:31:04.773Z,10.50
2023-04-28T22:33:33.342Z,10.50
2023-04-28T22:36:01.415Z,10.50
2023-04-28T22:38:29.400Z,10.60
2023-04-28T22:40:57.369Z,10.60
2023-04-28T22:43:27.637Z,10.60
2023-04-28T22:45:57.794Z,10.60
2023-04-28T22:48:25.840Z,10.70
2023-04-28T22:50:53.805Z,10.70
2023-04-28T22:53:21.785Z,10.80
2023-04-28T22:55:49.712Z,10.80
2023-04-28T22:58:17.715Z,10.80
2023-04-28T23:00:47.018Z,10.90
2023-04-28T23:03:15.192Z,10.90
2023-04-28T23:05:43.362Z,10.90
2023-04-28T23:08:11.327Z,10.90
2023-04-28T23:10:39.338Z,11.00
2023-04-28T23:13:07.375Z,11.00
2023-04-28T23:15:36.695Z,10.90
2023-04-28T23:18:06.406Z,10.90
2023-04-28T23:20:35.050Z,11.00
2023-04-28T23:23:03.281Z,10.90
2023-04-28T23:25:31.212Z,11.00
2023-04-28T23:27:59.163Z,11.00
2023-04-28T23:30:27.128Z,11.00
2023-04-28T23:32:55.215Z,11.10
2023-04-28T23:35:24.669Z,11.10
2023-04-28T23:37:52.708Z,11.20
2023-04-28T23:40:20.659Z,11.20
2023-04-28T23:42:49.010Z,11.20
2023-04-28T23:45:17.318Z,11.20
2023-04-28T23:47:45.335Z,11.20
2023-04-28T23:50:13.476Z,11.20
2023-04-28T23:52:43.928Z,11.20
2023-04-28T23:55:13.041Z,11.20
2023-04-28T23:57:41.852Z,11.20
